Garber, Illinois
Current Conditions -  °F | °C
As of 6:30 AM on Saturday 25 Oct 2014 (Local Time) from KTIP Reporting Station
Clear Clear  
Wind Chill: 51°   Ceiling: Unl
Heat Index: 51°   Visibility: 7mi
Dew Point: 49°   Wind: 3mph
Humidity: 94%   Direction: 280°W
Pressure: 29.96"   Gusts: NA
Location:  40.4643°N, 88.3467°W
Report Text: KTIP 251130Z AUTO 28003KT 7SM CLR 11/10 A2996 RMK AO2 T01060097
Loading
Personal Weather Stations






























Interactive Weather Map
Tropical Storm Tracking
New forecast layout! Learn more

10-Day Weather Forecast

Advertisements
Track Severe Weather on mobile